createdAt,value
2023-04-22T00:00:35.693Z,97.35
2023-04-22T00:03:03.985Z,98.07
2023-04-22T00:05:31.525Z,98.54
2023-04-22T00:07:58.102Z,98.18
2023-04-22T00:10:24.557Z,97.59
2023-04-22T00:12:54.257Z,97.96
2023-04-22T00:15:25.483Z,98.75
2023-04-22T00:17:52.050Z,99.20
2023-04-22T00:20:21.480Z,99.45
2023-04-22T00:22:48.058Z,99.46
2023-04-22T00:25:14.585Z,99.95
2023-04-22T00:27:41.026Z,100.00
2023-04-22T00:30:10.457Z,100.00
2023-04-22T00:32:37.125Z,100.00
2023-04-22T00:35:04.374Z,99.75
2023-04-22T00:37:30.869Z,99.64
2023-04-22T00:39:58.044Z,100.00
2023-04-22T00:42:25.404Z,100.00
2023-04-22T00:44:56.302Z,99.91
2023-04-22T00:47:26.666Z,100.00
2023-04-22T00:49:54.150Z,100.00
2023-04-22T00:52:20.693Z,100.00
2023-04-22T00:54:48.183Z,100.00
2023-04-22T00:57:14.717Z,100.00
2023-04-22T00:59:42.592Z,100.00
2023-04-22T01:02:09.334Z,99.91
2023-04-22T01:04:39.658Z,99.74
2023-04-22T01:07:06.697Z,100.00
2023-04-22T01:09:33.807Z,100.00
2023-04-22T01:12:01.423Z,100.00
2023-04-22T01:14:30.723Z,100.00
2023-04-22T01:17:01.745Z,99.03
2023-04-22T01:19:29.424Z,99.74
2023-04-22T01:21:59.834Z,100.00
2023-04-22T01:24:26.644Z,100.00
2023-04-22T01:26:53.372Z,100.00
2023-04-22T01:29:20.022Z,99.35
2023-04-22T01:31:50.172Z,98.86
2023-04-22T01:34:16.838Z,97.56
2023-04-22T01:36:44.392Z,97.19
2023-04-22T01:39:10.904Z,97.13
2023-04-22T01:41:37.452Z,97.50
2023-04-22T01:44:04.739Z,96.28
2023-04-22T01:46:33.062Z,95.61
2023-04-22T01:48:59.620Z,95.44
2023-04-22T01:51:26.160Z,95.27
2023-04-22T01:53:52.998Z,95.72
2023-04-22T01:56:19.565Z,96.16
2023-04-22T01:58:45.997Z,96.38
2023-04-22T02:01:13.420Z,96.33
2023-04-22T02:03:39.968Z,97.06
2023-04-22T02:06:06.668Z,97.65
2023-04-22T02:08:33.407Z,98.16
2023-04-22T02:11:00.917Z,98.09
2023-04-22T02:13:40.898Z,97.95
2023-04-22T02:16:08.172Z,98.41
2023-04-22T02:18:35.138Z,98.33
2023-04-22T02:21:01.778Z,98.02
2023-04-22T02:23:28.922Z,98.00
2023-04-22T02:25:56.048Z,98.34
2023-04-22T02:28:22.739Z,98.42
2023-04-22T02:30:49.274Z,98.21
2023-04-22T02:33:15.726Z,99.28
2023-04-22T02:35:42.210Z,100.00
2023-04-22T02:38:10.382Z,100.00
2023-04-22T02:40:36.923Z,100.00
2023-04-22T02:43:04.441Z,100.00
2023-04-22T02:45:31.159Z,100.00
2023-04-22T02:47:57.694Z,100.00
2023-04-22T02:50:24.381Z,100.00
2023-04-22T02:52:51.437Z,100.00
2023-04-22T02:55:18.008Z,100.00
2023-04-22T02:57:44.559Z,100.00
2023-04-22T03:00:11.502Z,100.00
2023-04-22T03:02:38.843Z,100.00
2023-04-22T03:05:06.080Z,100.00
2023-04-22T03:07:32.543Z,100.00
2023-04-22T03:10:00.698Z,100.00
2023-04-22T03:12:27.252Z,100.00
2023-04-22T03:14:53.769Z,100.00
2023-04-22T03:17:20.646Z,100.00
2023-04-22T03:19:47.662Z,100.00
2023-04-22T03:22:14.135Z,100.00
2023-04-22T03:24:40.613Z,100.00
2023-04-22T03:27:07.140Z,100.00
2023-04-22T03:29:34.464Z,100.00
2023-04-22T03:32:03.918Z,100.00
2023-04-22T03:34:30.449Z,100.00
2023-04-22T03:36:56.938Z,100.00
2023-04-22T03:39:23.381Z,100.00
2023-04-22T03:41:49.855Z,100.00
2023-04-22T03:44:16.289Z,100.00
2023-04-22T03:46:42.771Z,100.00
2023-04-22T03:49:09.653Z,100.00
2023-04-22T03:51:36.082Z,100.00
2023-04-22T03:54:02.579Z,100.00
2023-04-22T03:56:29.105Z,100.00
2023-04-22T03:58:55.640Z,100.00
2023-04-22T04:01:23.476Z,100.00
2023-04-22T04:03:50.144Z,100.00
2023-04-22T04:06:16.751Z,100.00
2023-04-22T04:08:43.240Z,100.00
2023-04-22T04:11:11.317Z,100.00
2023-04-22T04:13:37.833Z,100.00
2023-04-22T04:16:04.423Z,100.00
2023-04-22T04:18:30.941Z,100.00
2023-04-22T04:20:57.368Z,100.00
2023-04-22T04:23:23.960Z,100.00
2023-04-22T04:25:50.475Z,100.00
2023-04-22T04:28:17.732Z,100.00
2023-04-22T04:30:44.205Z,100.00
2023-04-22T04:33:12.346Z,100.00
2023-04-22T04:35:39.316Z,100.00
2023-04-22T04:38:08.548Z,100.00
2023-04-22T04:40:35.757Z,100.00
2023-04-22T04:43:04.248Z,100.00
2023-04-22T04:45:31.000Z,100.00
2023-04-22T04:47:58.447Z,100.00
2023-04-22T04:50:28.061Z,100.00
2023-04-22T04:52:54.742Z,100.00
2023-04-22T04:55:21.395Z,100.00
2023-04-22T04:57:47.952Z,100.00
2023-04-22T05:00:14.615Z,100.00
2023-04-22T05:02:41.585Z,100.00
2023-04-22T05:05:08.908Z,100.00
2023-04-22T05:07:35.593Z,100.00
2023-04-22T05:10:03.630Z,100.00
2023-04-22T05:12:30.220Z,100.00
2023-04-22T05:14:56.720Z,100.00
2023-04-22T05:17:23.197Z,100.00
2023-04-22T05:19:49.676Z,100.00
2023-04-22T05:22:17.908Z,100.00
2023-04-22T05:24:44.469Z,100.00
2023-04-22T05:27:11.202Z,100.00
2023-04-22T05:29:38.005Z,100.00
2023-04-22T05:32:05.030Z,100.00
2023-04-22T05:34:31.695Z,100.00
2023-04-22T05:36:58.168Z,100.00
2023-04-22T05:39:24.702Z,100.00
2023-04-22T05:41:53.999Z,100.00
2023-04-22T05:44:20.616Z,99.25
2023-04-22T05:46:47.578Z,99.14
2023-04-22T05:49:14.098Z,98.89
2023-04-22T05:51:40.565Z,98.55
2023-04-22T05:54:07.275Z,98.69
2023-04-22T05:56:33.983Z,99.04
2023-04-22T05:59:00.512Z,98.90
2023-04-22T06:01:26.968Z,99.22
2023-04-22T06:03:53.715Z,97.42
2023-04-22T06:06:20.323Z,96.80
2023-04-22T06:08:46.816Z,96.02
2023-04-22T06:11:13.292Z,95.46
2023-04-22T06:13:39.751Z,92.60
2023-04-22T06:18:38.472Z,93.73
2023-04-22T06:21:08.240Z,94.59
2023-04-22T06:23:34.696Z,92.69
2023-04-22T06:26:01.682Z,92.43
2023-04-22T06:28:28.615Z,93.15
2023-04-22T06:30:58.423Z,95.01
2023-04-22T06:33:24.878Z,93.76
2023-04-22T06:35:51.397Z,94.17
2023-04-22T06:38:17.852Z,94.99
2023-04-22T06:40:44.358Z,95.73
2023-04-22T06:43:10.821Z,97.57
2023-04-22T06:45:37.569Z,98.78
2023-04-22T06:48:04.062Z,97.07
2023-04-22T06:50:30.794Z,96.15
2023-04-22T06:52:57.747Z,94.17
2023-04-22T06:55:24.224Z,92.44
2023-04-22T06:57:51.365Z,91.08
2023-04-22T07:00:18.232Z,91.81
2023-04-22T07:02:44.780Z,91.57
2023-04-22T07:05:11.342Z,91.49
2023-04-22T07:07:37.893Z,88.98
2023-04-22T07:10:05.195Z,87.50
2023-04-22T07:12:31.627Z,88.10
2023-04-22T07:14:58.085Z,89.89
2023-04-22T07:17:24.579Z,86.47
2023-04-22T07:19:51.197Z,84.34
2023-04-22T07:22:17.693Z,85.37
2023-04-22T07:24:44.202Z,85.92
2023-04-22T07:27:10.869Z,85.28
2023-04-22T07:29:37.746Z,86.92
2023-04-22T07:32:04.781Z,87.14
2023-04-22T07:34:31.264Z,88.44
2023-04-22T07:36:57.985Z,89.42
2023-04-22T07:39:24.473Z,88.66
2023-04-22T07:41:51.337Z,88.29
2023-04-22T07:44:21.441Z,88.86
2023-04-22T07:46:48.788Z,87.78
2023-04-22T07:49:16.650Z,88.20
2023-04-22T07:51:46.474Z,89.76
2023-04-22T07:54:15.922Z,89.65
2023-04-22T07:56:42.446Z,87.55
2023-04-22T07:59:08.882Z,88.05
2023-04-22T08:01:35.428Z,88.35
2023-04-22T08:04:02.119Z,87.83
2023-04-22T08:06:28.783Z,88.92
2023-04-22T08:08:55.232Z,87.37
2023-04-22T08:11:21.799Z,87.71
2023-04-22T08:13:48.326Z,87.37
2023-04-22T08:16:14.921Z,87.32
2023-04-22T08:18:41.435Z,85.93
2023-04-22T08:21:07.970Z,84.65
2023-04-22T08:23:34.515Z,84.63
2023-04-22T08:26:01.147Z,82.26
2023-04-22T08:28:27.692Z,79.69
2023-04-22T08:30:54.134Z,81.40
2023-04-22T08:33:20.725Z,78.82
2023-04-22T08:35:48.033Z,78.46
2023-04-22T08:38:14.511Z,77.92
2023-04-22T08:40:42.330Z,74.52
2023-04-22T08:43:09.437Z,75.15
2023-04-22T08:45:39.676Z,74.75
2023-04-22T08:48:09.011Z,74.11
2023-04-22T08:50:39.339Z,73.67
2023-04-22T08:53:06.291Z,73.29
2023-04-22T08:55:34.556Z,73.31
2023-04-22T08:58:01.778Z,71.18
2023-04-22T09:00:28.473Z,70.10
2023-04-22T09:02:56.465Z,71.93
2023-04-22T09:05:26.674Z,68.84
2023-04-22T09:07:55.249Z,68.56
2023-04-22T09:10:21.802Z,63.82
2023-04-22T09:12:48.885Z,64.57
2023-04-22T09:15:15.354Z,63.05
2023-04-22T09:17:43.326Z,63.94
2023-04-22T09:20:10.330Z,63.14
2023-04-22T09:22:49.057Z,62.39
2023-04-22T09:25:20.381Z,61.94
2023-04-22T09:27:53.036Z,62.78
2023-04-22T09:30:24.931Z,65.29
2023-04-22T09:33:00.453Z,60.77
2023-04-22T09:35:28.076Z,60.09
2023-04-22T09:37:55.330Z,55.90
2023-04-22T09:40:21.969Z,55.31
2023-04-22T09:42:53.138Z,54.22
2023-04-22T09:45:34.442Z,53.34
2023-04-22T09:48:19.573Z,53.12
2023-04-22T09:50:51.329Z,52.95
2023-04-22T09:53:18.506Z,53.69
2023-04-22T12:57:43.490Z,48.94
2023-04-22T13:00:14.360Z,49.79
2023-04-22T13:02:45.264Z,49.69
2023-04-22T13:05:12.833Z,49.17
2023-04-22T13:07:41.766Z,48.86
2023-04-22T13:10:14.587Z,48.53
2023-04-22T13:12:42.422Z,48.14
2023-04-22T13:15:10.222Z,48.44
2023-04-22T13:17:37.327Z,49.35
2023-04-22T13:20:09.909Z,49.22
2023-04-22T13:22:36.536Z,49.01
2023-04-22T13:25:03.118Z,48.33
2023-04-22T13:27:29.650Z,48.26
2023-04-22T13:29:56.993Z,47.77
2023-04-22T13:32:23.679Z,47.48
2023-04-22T13:34:50.326Z,48.31
2023-04-22T13:37:19.240Z,48.43
2023-04-22T13:39:46.209Z,48.07
2023-04-22T13:42:13.451Z,48.61
2023-04-22T13:44:39.945Z,48.85
2023-04-22T13:47:06.516Z,49.17
2023-04-22T13:49:33.056Z,50.30
2023-04-22T13:51:59.559Z,50.13
2023-04-22T13:54:27.452Z,50.31
2023-04-22T13:56:54.233Z,49.13
2023-04-22T13:59:20.981Z,49.17
2023-04-22T14:01:47.474Z,49.80
2023-04-22T14:04:14.195Z,49.87
2023-04-22T14:06:40.844Z,48.73
2023-04-22T14:09:07.857Z,49.07
2023-04-22T14:11:34.581Z,48.90
2023-04-22T14:14:01.136Z,48.00
2023-04-22T14:16:27.663Z,46.76
2023-04-22T14:18:55.855Z,46.03
2023-04-22T14:21:22.283Z,45.91
2023-04-22T14:23:49.534Z,45.47
2023-04-22T14:26:16.014Z,45.47
2023-04-22T14:28:42.608Z,45.64
2023-04-22T14:31:09.661Z,45.77
2023-04-22T14:33:36.167Z,46.02
2023-04-22T14:36:02.993Z,45.82
2023-04-22T14:38:29.736Z,46.11
2023-04-22T14:40:56.214Z,45.18
2023-04-22T14:43:22.742Z,45.65
2023-04-22T14:45:49.252Z,45.10
2023-04-22T14:48:16.091Z,45.77
2023-04-22T14:50:43.495Z,45.26
2023-04-22T14:53:10.034Z,43.73
2023-04-22T14:55:36.630Z,43.93
2023-04-22T14:58:06.916Z,43.50
2023-04-22T15:00:33.402Z,44.40
2023-04-22T15:03:00.413Z,44.57
2023-04-22T15:05:27.069Z,43.21
2023-04-22T15:07:53.687Z,43.60
2023-04-22T15:10:20.603Z,43.83
2023-04-22T15:12:47.086Z,43.89
2023-04-22T15:15:15.716Z,44.81
2023-04-22T15:17:43.271Z,44.79
2023-04-22T15:20:10.765Z,45.30
2023-04-22T15:22:40.854Z,45.55
2023-04-22T15:25:09.695Z,45.50
2023-04-22T15:27:37.296Z,45.62
2023-04-22T15:30:05.977Z,45.92
2023-04-22T15:32:32.533Z,46.37
2023-04-22T15:34:59.100Z,46.00
2023-04-22T15:37:28.344Z,46.34
2023-04-22T15:39:54.844Z,45.92
2023-04-22T15:42:21.304Z,45.55
2023-04-22T15:44:47.819Z,46.14
2023-04-22T15:47:15.896Z,46.29
2023-04-22T15:49:42.579Z,46.09
2023-04-22T15:52:09.323Z,45.46
2023-04-22T15:54:35.832Z,45.69
2023-04-22T15:57:02.455Z,46.08
2023-04-22T15:59:28.921Z,45.48
2023-04-22T16:01:55.493Z,45.90
2023-04-22T16:04:22.213Z,46.53
2023-04-22T16:06:50.741Z,46.41
2023-04-22T16:09:17.860Z,45.05
2023-04-22T16:11:44.348Z,44.93
2023-04-22T16:14:11.296Z,45.68
2023-04-22T16:16:39.999Z,45.12
2023-04-22T16:19:07.296Z,45.33
2023-04-22T16:21:36.495Z,46.38
2023-04-22T16:24:03.110Z,45.59
2023-04-22T16:26:29.652Z,45.55
2023-04-22T16:28:56.292Z,45.66
2023-04-22T16:31:25.867Z,45.97
2023-04-22T16:33:52.436Z,46.70
2023-04-22T16:36:18.963Z,45.96
2023-04-22T16:38:45.574Z,45.50
2023-04-22T16:41:15.430Z,45.26
2023-04-22T16:43:43.969Z,45.50
2023-04-22T16:46:10.636Z,46.16
2023-04-22T16:48:37.167Z,46.33
2023-04-22T16:51:04.321Z,47.25
2023-04-22T16:53:31.328Z,47.41
2023-04-22T16:55:57.933Z,47.39
2023-04-22T16:58:24.504Z,47.68
2023-04-22T17:00:51.420Z,46.92
2023-04-22T17:03:18.051Z,47.32
2023-04-22T17:05:44.602Z,47.02
2023-04-22T17:08:11.056Z,47.03
2023-04-22T17:10:41.450Z,47.70
2023-04-22T17:13:07.989Z,47.79
2023-04-22T17:15:34.559Z,47.09
2023-04-22T17:18:02.430Z,47.72
2023-04-22T17:20:28.953Z,47.79
2023-04-22T17:22:55.492Z,47.95
2023-04-22T17:25:24.809Z,46.60
2023-04-22T17:27:51.250Z,47.67
2023-04-22T17:30:17.786Z,48.25
2023-04-22T17:32:44.253Z,49.08
2023-04-22T17:35:10.799Z,49.15
2023-04-22T17:37:37.392Z,48.98
2023-04-22T17:40:04.882Z,49.19
2023-04-22T17:42:44.739Z,50.04
2023-04-22T17:45:12.643Z,50.10
2023-04-22T17:47:39.214Z,50.72
2023-04-22T17:50:06.328Z,50.78
2023-04-22T17:52:32.814Z,51.15
2023-04-22T17:55:00.033Z,51.34
2023-04-22T17:57:28.424Z,51.18
2023-04-22T17:59:54.919Z,52.05
2023-04-22T18:02:22.307Z,51.21
2023-04-22T18:04:48.877Z,51.22
2023-04-22T18:07:15.712Z,51.51
2023-04-22T18:09:42.834Z,51.76
2023-04-22T18:12:10.235Z,51.66
2023-04-22T18:14:36.740Z,51.96
2023-04-22T18:17:03.501Z,52.07
2023-04-22T18:19:30.039Z,52.49
2023-04-22T18:22:00.144Z,52.52
2023-04-22T18:24:27.568Z,52.41
2023-04-22T18:26:54.163Z,53.23
2023-04-22T18:29:20.753Z,53.67
2023-04-22T18:31:47.531Z,54.53
2023-04-22T18:34:15.875Z,54.58
2023-04-22T18:36:42.570Z,55.53
2023-04-22T18:39:09.638Z,54.15
2023-04-22T18:41:38.604Z,53.19
2023-04-22T18:44:05.504Z,53.58
2023-04-22T18:46:32.153Z,53.56
2023-04-22T18:48:58.659Z,53.89
2023-04-22T18:51:25.150Z,53.69
2023-04-22T18:53:52.298Z,54.43
2023-04-22T18:56:18.773Z,55.03
2023-04-22T18:58:45.332Z,55.42
2023-04-22T19:01:12.080Z,56.10
2023-04-22T19:03:39.592Z,55.71
2023-04-22T19:06:06.880Z,56.10
2023-04-22T19:08:33.949Z,56.44
2023-04-22T19:11:01.102Z,56.67
2023-04-22T19:13:30.008Z,56.99
2023-04-22T19:15:57.350Z,57.38
2023-04-22T19:18:24.116Z,58.00
2023-04-22T19:20:50.682Z,58.75
2023-04-22T19:23:20.514Z,58.59
2023-04-22T19:25:46.957Z,59.12
2023-04-22T19:28:13.506Z,59.64
2023-04-22T19:30:43.472Z,59.53
2023-04-22T19:33:13.923Z,60.58
2023-04-22T19:35:40.965Z,60.68
2023-04-22T19:38:07.494Z,60.95
2023-04-22T19:40:34.742Z,61.58
2023-04-22T19:43:03.003Z,62.29
2023-04-22T19:45:32.298Z,62.20
2023-04-22T19:48:02.045Z,62.73
2023-04-22T19:50:28.698Z,63.13
2023-04-22T19:53:04.878Z,63.31
2023-04-22T19:55:33.689Z,63.75
2023-04-22T19:58:00.686Z,64.06
2023-04-22T20:00:27.295Z,64.43
2023-04-22T20:02:54.300Z,65.82
2023-04-22T20:05:22.173Z,64.74
2023-04-22T20:07:49.778Z,64.96
2023-04-22T20:10:16.712Z,65.21
2023-04-22T20:12:44.861Z,66.41
2023-04-22T20:15:11.806Z,66.60
2023-04-22T20:17:39.274Z,66.64
2023-04-22T20:20:08.296Z,66.26
2023-04-22T20:22:35.227Z,67.49
2023-04-22T20:25:04.118Z,68.01
2023-04-22T20:27:31.791Z,67.45
2023-04-22T20:30:00.461Z,66.73
2023-04-22T20:32:28.708Z,65.96
2023-04-22T20:34:56.098Z,65.09
2023-04-22T20:37:31.514Z,64.65
2023-04-22T20:40:04.446Z,64.11
2023-04-22T20:42:32.693Z,63.93
2023-04-22T20:44:59.336Z,63.42
2023-04-22T20:47:25.847Z,63.95
2023-04-22T20:49:52.401Z,63.34
2023-04-22T20:52:19.267Z,63.31
2023-04-22T20:54:46.120Z,63.43
2023-04-22T20:57:13.255Z,63.40
2023-04-22T20:59:39.747Z,63.44
2023-04-22T21:02:07.398Z,63.55
2023-04-22T21:04:34.626Z,63.62
2023-04-22T21:07:05.226Z,63.79
2023-04-22T21:09:35.373Z,64.03
2023-04-22T21:12:05.037Z,64.16
2023-04-22T21:14:31.799Z,64.24
2023-04-22T21:17:03.416Z,64.34
2023-04-22T21:19:34.150Z,64.84
2023-04-22T21:22:05.111Z,64.88
2023-04-22T21:24:32.876Z,65.08
2023-04-22T21:27:08.132Z,64.76
2023-04-22T21:29:38.324Z,65.36
2023-04-22T21:32:09.358Z,65.66
2023-04-22T21:34:40.577Z,65.76
2023-04-22T21:37:11.149Z,66.00
2023-04-22T21:39:39.193Z,65.98
2023-04-22T21:42:08.369Z,66.07
2023-04-22T21:44:36.495Z,66.49
2023-04-22T21:47:03.903Z,66.48
2023-04-22T21:49:30.382Z,66.53
2023-04-22T21:51:57.076Z,66.27
2023-04-22T21:54:23.574Z,66.93
2023-04-22T21:56:50.910Z,66.90
2023-04-22T21:59:19.435Z,67.48
2023-04-22T22:01:48.886Z,67.28
2023-04-22T22:04:16.413Z,67.46
2023-04-22T22:06:44.749Z,67.53
2023-04-22T22:09:12.075Z,67.53
2023-04-22T22:11:38.591Z,67.28
2023-04-22T22:14:08.884Z,67.46
2023-04-22T22:16:35.567Z,68.00
2023-04-22T22:19:05.195Z,67.97
2023-04-22T22:21:32.978Z,68.22
2023-04-22T22:24:03.912Z,68.72
2023-04-22T22:26:36.630Z,69.23
2023-04-22T22:29:03.273Z,69.55
2023-04-22T22:31:29.771Z,69.41
2023-04-22T22:34:02.106Z,69.97
2023-04-22T22:36:31.572Z,70.00
2023-04-22T22:38:58.476Z,70.19
2023-04-22T22:41:24.918Z,70.81
2023-04-22T22:43:51.714Z,71.16
2023-04-22T22:46:24.812Z,71.79
2023-04-22T22:48:53.645Z,72.08
2023-04-22T22:51:23.592Z,72.65
2023-04-22T22:53:50.168Z,72.84
2023-04-22T22:56:18.062Z,73.20
2023-04-22T22:58:46.077Z,73.52
2023-04-22T23:01:12.621Z,73.63
2023-04-22T23:03:39.561Z,74.08
2023-04-22T23:06:12.288Z,75.04
2023-04-22T23:08:41.699Z,75.13
2023-04-22T23:11:08.165Z,75.23
2023-04-22T23:13:34.660Z,75.15
2023-04-22T23:16:01.360Z,75.05
2023-04-22T23:18:28.053Z,75.31
2023-04-22T23:20:54.717Z,75.66
2023-04-22T23:23:22.731Z,76.13
2023-04-22T23:25:49.481Z,76.42
2023-04-22T23:28:16.398Z,76.80
2023-04-22T23:30:49.235Z,77.00
2023-04-22T23:33:26.639Z,77.63
2023-04-22T23:35:53.826Z,78.24
2023-04-22T23:38:20.521Z,78.57
2023-04-22T23:40:47.026Z,79.38
2023-04-22T23:43:13.585Z,79.43
2023-04-22T23:45:40.259Z,79.99
2023-04-22T23:48:09.805Z,80.21
2023-04-22T23:50:36.357Z,80.43
2023-04-22T23:53:33.772Z,81.02
2023-04-22T23:56:00.862Z,81.53
2023-04-22T23:58:27.526Z,82.02
